createdAt,value
2023-01-29T00:01:54.089Z,10.27
2023-01-29T00:04:20.784Z,9.35
2023-01-29T00:06:47.278Z,9.85
2023-01-29T00:09:13.796Z,10.07
2023-01-29T00:11:41.091Z,10.27
2023-01-29T00:14:07.992Z,8.18
2023-01-29T00:16:34.544Z,8.88
2023-01-29T00:19:02.248Z,9.63
2023-01-29T00:21:31.086Z,9.50
2023-01-29T00:23:58.687Z,9.57
2023-01-29T00:26:25.860Z,9.85
2023-01-29T00:28:52.523Z,8.57
2023-01-29T00:31:22.137Z,9.05
2023-01-29T00:33:49.650Z,8.93
2023-01-29T00:36:18.423Z,9.57
2023-01-29T00:38:46.426Z,9.23
2023-01-29T00:41:34.297Z,9.20
2023-01-29T00:44:20.093Z,9.05
2023-01-29T00:46:46.784Z,9.27
2023-01-29T00:49:13.396Z,9.77
2023-01-29T00:51:40.098Z,8.73
2023-01-29T00:54:07.060Z,8.38
2023-01-29T00:56:36.648Z,8.98
2023-01-29T00:59:04.384Z,9.13
2023-01-29T01:01:49.405Z,7.82
2023-01-29T01:04:15.889Z,8.85
2023-01-29T01:06:42.986Z,8.40
2023-01-29T01:09:29.206Z,8.98
2023-01-29T01:11:55.991Z,8.95
2023-01-29T01:14:22.525Z,8.55
2023-01-29T01:16:49.462Z,9.75
2023-01-29T01:19:16.429Z,8.70
2023-01-29T01:21:48.253Z,8.27
2023-01-29T01:24:15.411Z,9.35
2023-01-29T01:26:41.958Z,8.25
2023-01-29T01:29:09.141Z,8.65
2023-01-29T01:31:35.810Z,8.25
2023-01-29T01:34:02.445Z,8.73
2023-01-29T01:36:28.883Z,8.77
2023-01-29T01:38:55.577Z,8.90
2023-01-29T01:41:23.283Z,9.30
2023-01-29T01:43:58.616Z,8.40
2023-01-29T01:46:28.338Z,8.93
2023-01-29T01:49:01.539Z,8.05
2023-01-29T01:51:32.110Z,10.02
2023-01-29T01:54:12.806Z,7.97
2023-01-29T01:56:44.506Z,8.80
2023-01-29T01:59:14.554Z,9.25
2023-01-29T02:01:43.335Z,9.35
2023-01-29T02:04:40.833Z,8.52
2023-01-29T02:07:31.697Z,8.68
2023-01-29T02:10:10.025Z,9.70
2023-01-29T02:12:37.362Z,9.40
2023-01-29T02:15:05.146Z,7.68
2023-01-29T02:17:32.358Z,9.73
2023-01-29T02:20:30.175Z,9.02
2023-01-29T02:23:16.825Z,9.35
2023-01-29T02:26:13.540Z,9.32
2023-01-29T02:28:54.717Z,9.98
2023-01-29T02:31:34.670Z,9.85
2023-01-29T02:34:18.670Z,9.73
2023-01-29T02:36:51.530Z,9.13
2023-01-29T02:39:39.638Z,9.05
2023-01-29T02:42:27.844Z,10.05
2023-01-29T02:45:06.396Z,10.15
2023-01-29T02:47:47.597Z,9.90
2023-01-29T02:51:00.602Z,9.93
2023-01-29T02:53:34.790Z,9.68
2023-01-29T02:56:15.833Z,9.52
2023-01-29T02:58:54.926Z,8.90
2023-01-29T03:01:30.347Z,10.05
2023-01-29T03:04:03.195Z,10.13
2023-01-29T03:06:37.998Z,10.15
2023-01-29T03:09:26.892Z,10.63
2023-01-29T03:12:01.121Z,9.60
2023-01-29T03:14:59.057Z,9.90
2023-01-29T03:17:32.595Z,10.00
2023-01-29T03:22:27.278Z,9.50
2023-01-29T03:25:16.905Z,10.02
2023-01-29T03:28:08.622Z,9.90
2023-01-29T03:30:59.159Z,9.88
2023-01-29T03:33:29.563Z,10.90
2023-01-29T03:36:02.481Z,9.55
2023-01-29T03:38:31.700Z,10.45
2023-01-29T03:41:06.623Z,9.98
2023-01-29T03:43:36.061Z,9.60
2023-01-29T03:46:14.353Z,9.70
2023-01-29T03:48:53.568Z,10.35
2023-01-29T03:51:28.275Z,10.48
2023-01-29T03:54:08.309Z,10.55
2023-01-29T03:56:52.855Z,10.27
2023-01-29T03:59:28.163Z,9.60
2023-01-29T04:01:59.486Z,10.15
2023-01-29T04:04:33.067Z,10.63
2023-01-29T04:09:45.380Z,10.07
2023-01-29T04:12:16.396Z,9.45
2023-01-29T04:14:43.021Z,9.80
2023-01-29T04:17:16.393Z,9.20
2023-01-29T04:19:43.355Z,10.40
2023-01-29T04:22:34.641Z,9.30
2023-01-29T04:25:15.897Z,9.98
2023-01-29T04:27:57.322Z,9.95
2023-01-29T04:30:44.598Z,10.13
2023-01-29T04:33:30.424Z,10.18
2023-01-29T04:36:07.104Z,9.68
2023-01-29T04:38:59.498Z,10.02
2023-01-29T04:41:40.561Z,9.70
2023-01-29T04:44:33.472Z,10.30
2023-01-29T04:47:23.795Z,8.98
2023-01-29T04:50:11.656Z,9.98
2023-01-29T04:52:50.264Z,10.02
2023-01-29T04:55:47.216Z,9.25
2023-01-29T04:58:35.927Z,11.18
2023-01-29T05:01:07.065Z,10.60
2023-01-29T05:03:36.295Z,8.98
2023-01-29T05:06:04.849Z,9.88
2023-01-29T05:08:32.744Z,10.65
2023-01-29T05:10:59.902Z,9.23
2023-01-29T05:13:29.984Z,10.23
2023-01-29T05:16:04.880Z,10.00
2023-01-29T05:18:32.279Z,9.40
2023-01-29T05:21:04.304Z,10.85
2023-01-29T05:23:30.941Z,9.20
2023-01-29T05:25:57.808Z,10.07
2023-01-29T05:28:24.299Z,9.93
2023-01-29T05:30:53.681Z,9.82
2023-01-29T05:33:23.006Z,9.70
2023-01-29T05:35:50.372Z,10.43
2023-01-29T05:38:20.531Z,9.95
2023-01-29T05:40:47.549Z,9.27
2023-01-29T05:43:25.198Z,10.82
2023-01-29T05:45:52.874Z,11.07
2023-01-29T05:48:19.483Z,11.00
2023-01-29T05:50:45.979Z,11.27
2023-01-29T05:53:12.502Z,10.63
2023-01-29T05:55:39.005Z,11.15
2023-01-29T05:58:06.205Z,11.00
2023-01-29T06:00:32.712Z,10.80
2023-01-29T06:02:59.315Z,11.27
2023-01-29T06:05:25.852Z,11.00
2023-01-29T06:07:52.290Z,10.40
2023-01-29T06:10:19.153Z,11.15
2023-01-29T06:12:45.938Z,10.45
2023-01-29T06:15:13.010Z,10.50
2023-01-29T06:17:39.573Z,10.95
2023-01-29T06:20:06.729Z,10.50
2023-01-29T06:22:33.552Z,10.32
2023-01-29T06:25:00.058Z,10.18
2023-01-29T06:27:26.736Z,10.48
2023-01-29T06:29:53.203Z,10.25
2023-01-29T06:32:19.764Z,10.75
2023-01-29T06:34:48.637Z,10.68
2023-01-29T06:37:16.135Z,10.95
2023-01-29T06:39:42.585Z,10.77
2023-01-29T06:42:09.994Z,11.10
2023-01-29T06:44:36.573Z,10.45
2023-01-29T06:47:03.090Z,11.07
2023-01-29T06:49:29.637Z,9.63
2023-01-29T06:51:56.125Z,9.43
2023-01-29T06:54:22.626Z,10.23
2023-01-29T06:56:49.243Z,10.30
2023-01-29T06:59:16.007Z,11.07
2023-01-29T07:01:44.219Z,10.80
2023-01-29T07:04:11.497Z,9.95
2023-01-29T07:06:38.024Z,10.60
2023-01-29T07:09:05.007Z,10.13
2023-01-29T07:11:32.019Z,10.68
2023-01-29T07:13:58.580Z,11.10
2023-01-29T07:16:26.376Z,11.63
2023-01-29T07:18:53.119Z,10.82
2023-01-29T07:21:19.687Z,10.95
2023-01-29T07:23:46.213Z,11.25
2023-01-29T07:26:12.704Z,10.32
2023-01-29T07:28:40.051Z,10.18
2023-01-29T07:31:07.347Z,11.20
2023-01-29T07:33:34.663Z,11.93
2023-01-29T07:36:01.155Z,10.88
2023-01-29T07:38:27.823Z,10.25
2023-01-29T07:40:54.847Z,11.25
2023-01-29T07:43:21.454Z,11.23
2023-01-29T07:45:48.040Z,11.20
2023-01-29T07:48:14.555Z,10.82
2023-01-29T07:50:41.406Z,11.50
2023-01-29T07:53:19.302Z,11.23
2023-01-29T07:55:45.783Z,11.07
2023-01-29T07:58:12.739Z,10.60
2023-01-29T08:00:39.505Z,10.18
2023-01-29T08:03:07.837Z,11.55
2023-01-29T08:05:34.453Z,10.52
2023-01-29T08:08:07.007Z,10.55
2023-01-29T08:10:38.467Z,12.50
2023-01-29T08:13:06.106Z,11.95
2023-01-29T08:15:33.599Z,11.15
2023-01-29T08:18:02.171Z,11.73
2023-01-29T08:20:28.884Z,11.45
2023-01-29T08:23:00.806Z,11.63
2023-01-29T08:25:28.130Z,11.38
2023-01-29T08:27:56.170Z,11.00
2023-01-29T08:30:22.974Z,11.48
2023-01-29T08:32:49.483Z,11.10
2023-01-29T08:35:16.107Z,11.68
2023-01-29T08:38:01.695Z,12.13
2023-01-29T08:40:31.943Z,11.02
2023-01-29T08:43:04.074Z,10.90
2023-01-29T08:45:34.656Z,10.95
2023-01-29T08:48:01.364Z,10.95
2023-01-29T08:50:30.050Z,11.15
2023-01-29T08:53:01.163Z,10.52
2023-01-29T08:55:28.388Z,10.60
2023-01-29T08:57:57.319Z,11.30
2023-01-29T09:00:23.950Z,11.48
2023-01-29T09:02:50.559Z,11.05
2023-01-29T09:05:17.417Z,11.15
2023-01-29T09:07:44.136Z,11.10
2023-01-29T09:10:12.254Z,11.70
2023-01-29T09:12:38.865Z,11.48
2023-01-29T09:15:05.844Z,11.98
2023-01-29T09:17:32.288Z,11.90
2023-01-29T09:19:58.848Z,11.25
2023-01-29T09:22:25.386Z,11.10
2023-01-29T09:24:51.930Z,11.90
2023-01-29T09:27:18.442Z,12.13
2023-01-29T09:29:44.971Z,10.93
2023-01-29T09:32:11.446Z,10.55
2023-01-29T09:34:37.942Z,11.48
2023-01-29T09:37:04.467Z,11.15
2023-01-29T09:39:30.955Z,11.10
2023-01-29T09:42:06.088Z,10.85
2023-01-29T09:45:14.968Z,11.57
2023-01-29T09:47:42.095Z,10.88
2023-01-29T09:50:19.035Z,11.10
2023-01-29T09:52:52.159Z,10.98
2023-01-29T09:55:25.034Z,10.88
2023-01-29T09:58:07.582Z,10.80
2023-01-29T10:00:40.462Z,10.73
2023-01-29T10:03:18.954Z,10.73
2023-01-29T10:06:05.335Z,10.93
2023-01-29T10:08:48.520Z,11.10
2023-01-29T10:11:17.648Z,8.27
2023-01-29T10:13:59.927Z,10.75
2023-01-29T10:16:38.411Z,12.48
2023-01-29T10:19:17.060Z,12.07
2023-01-29T10:22:04.413Z,11.02
2023-01-29T10:24:42.043Z,11.63
2023-01-29T10:27:15.488Z,10.73
2023-01-29T10:32:16.292Z,10.55
2023-01-29T10:34:56.269Z,10.32
2023-01-29T10:37:26.552Z,10.95
2023-01-29T10:39:53.150Z,11.57
2023-01-29T10:42:28.678Z,11.00
2023-01-29T10:45:18.503Z,10.43
2023-01-29T10:47:54.099Z,10.32
2023-01-29T10:50:47.105Z,10.95
2023-01-29T10:53:44.536Z,10.05
2023-01-29T10:56:41.998Z,11.55
2023-01-29T10:59:36.369Z,12.73
2023-01-29T11:02:03.447Z,10.90
2023-01-29T11:04:32.379Z,10.48
2023-01-29T11:07:00.152Z,10.23
2023-01-29T11:12:03.572Z,11.40
2023-01-29T11:14:52.907Z,11.70
2023-01-29T11:17:23.594Z,11.10
2023-01-29T11:19:51.746Z,10.60
2023-01-29T11:22:20.771Z,10.60
2023-01-29T11:25:16.942Z,10.27
2023-01-29T11:27:55.103Z,9.95
2023-01-29T11:30:28.323Z,10.40
2023-01-29T11:32:57.749Z,9.23
2023-01-29T11:35:25.930Z,9.90
2023-01-29T11:37:52.987Z,10.05
2023-01-29T11:40:19.550Z,9.88
2023-01-29T11:42:47.132Z,9.52
2023-01-29T11:45:33.960Z,9.95
2023-01-29T11:48:01.014Z,9.35
2023-01-29T11:50:33.171Z,9.98
2023-01-29T11:53:00.435Z,10.05
2023-01-29T11:55:40.944Z,10.43
2023-01-29T11:58:34.376Z,10.90
2023-01-29T12:01:01.219Z,9.98
2023-01-29T12:03:41.687Z,9.13
2023-01-29T12:06:18.905Z,9.43
2023-01-29T12:08:58.434Z,9.07
2023-01-29T12:11:30.640Z,8.90
2023-01-29T12:13:59.512Z,9.63
2023-01-29T12:16:53.015Z,8.90
2023-01-29T12:19:33.171Z,9.20
2023-01-29T12:22:04.021Z,9.15
2023-01-29T12:24:41.630Z,9.13
2023-01-29T12:27:15.274Z,8.07
2023-01-29T12:29:59.745Z,8.18
2023-01-29T12:32:50.665Z,8.48
2023-01-29T12:35:27.073Z,8.70
2023-01-29T12:38:00.987Z,7.78
2023-01-29T12:40:33.777Z,8.45
2023-01-29T12:43:09.706Z,7.30
2023-01-29T12:45:37.686Z,8.38
2023-01-29T12:48:13.647Z,8.93
2023-01-29T12:50:41.038Z,8.20
2023-01-29T12:53:28.813Z,9.13
2023-01-29T12:56:20.204Z,7.53
2023-01-29T12:58:50.699Z,8.95
2023-01-29T13:01:33.286Z,7.32
2023-01-29T13:04:06.871Z,7.95
2023-01-29T13:06:41.576Z,8.77
2023-01-29T13:09:22.563Z,7.85
2023-01-29T13:11:56.437Z,7.90
2023-01-29T13:14:28.779Z,7.50
2023-01-29T13:17:09.149Z,7.40
2023-01-29T13:19:41.440Z,7.13
2023-01-29T13:22:18.281Z,7.40
2023-01-29T13:24:55.470Z,8.13
2023-01-29T13:27:33.575Z,8.10
2023-01-29T13:30:00.385Z,6.95
2023-01-29T13:32:29.566Z,7.30
2023-01-29T13:35:00.103Z,7.68
2023-01-29T13:37:45.323Z,6.95
2023-01-29T13:40:24.236Z,6.80
2023-01-29T13:42:53.405Z,6.85
2023-01-29T13:45:34.392Z,6.95
2023-01-29T13:48:27.613Z,6.63
2023-01-29T13:50:56.737Z,7.33
2023-01-29T13:53:27.168Z,7.65
2023-01-29T13:55:54.905Z,7.60
2023-01-29T13:58:33.595Z,8.30
2023-01-29T14:01:01.649Z,8.43
2023-01-29T14:03:29.951Z,8.23
2023-01-29T14:06:02.724Z,7.45
2023-01-29T14:08:34.973Z,8.05
2023-01-29T14:11:14.295Z,7.70
2023-01-29T14:13:48.809Z,7.22
2023-01-29T14:16:15.249Z,7.18
2023-01-29T14:18:55.430Z,7.50
2023-01-29T14:21:28.251Z,7.82
2023-01-29T14:23:58.193Z,6.38
2023-01-29T14:26:46.109Z,7.22
2023-01-29T14:29:14.451Z,8.35
2023-01-29T14:31:49.078Z,7.68
2023-01-29T14:34:23.947Z,8.23
2023-01-29T14:36:55.622Z,8.18
2023-01-29T14:39:29.658Z,10.02
2023-01-29T14:41:57.614Z,9.93
2023-01-29T14:44:45.871Z,7.70
2023-01-29T14:47:28.341Z,8.27
2023-01-29T14:50:00.165Z,9.07
2023-01-29T14:52:37.615Z,7.93
2023-01-29T14:55:09.405Z,8.07
2023-01-29T14:57:36.813Z,8.63
2023-01-29T15:00:17.452Z,8.65
2023-01-29T15:02:45.390Z,8.18
2023-01-29T15:05:19.535Z,7.65
2023-01-29T15:08:01.052Z,8.55
2023-01-29T15:10:35.836Z,7.22
2023-01-29T15:13:07.993Z,8.52
2023-01-29T15:15:40.456Z,7.13
2023-01-29T15:18:17.437Z,7.68
2023-01-29T15:20:44.173Z,6.95
2023-01-29T15:23:24.575Z,7.00
2023-01-29T15:25:54.120Z,7.75
2023-01-29T15:28:21.695Z,8.07
2023-01-29T15:30:55.066Z,6.95
2023-01-29T15:33:21.964Z,7.35
2023-01-29T15:35:51.665Z,6.88
2023-01-29T15:38:22.514Z,7.80
2023-01-29T15:41:19.768Z,6.60
2023-01-29T15:43:49.041Z,6.97
2023-01-29T15:46:33.970Z,7.07
2023-01-29T15:49:06.325Z,6.63
2023-01-29T15:51:33.381Z,7.00
2023-01-29T15:54:02.785Z,6.82
2023-01-29T15:56:33.368Z,7.20
2023-01-29T15:59:07.310Z,6.32
2023-01-29T16:01:35.825Z,6.38
2023-01-29T16:04:03.704Z,8.55
2023-01-29T16:06:38.820Z,8.45
2023-01-29T16:09:07.192Z,7.72
2023-01-29T16:11:35.282Z,7.63
2023-01-29T16:14:03.297Z,7.15
2023-01-29T16:16:30.129Z,7.18
2023-01-29T16:19:01.260Z,6.93
2023-01-29T16:21:33.811Z,7.40
2023-01-29T16:24:09.772Z,7.72
2023-01-29T16:26:44.917Z,7.80
2023-01-29T16:29:14.980Z,7.47
2023-01-29T16:31:44.504Z,7.50
2023-01-29T16:34:22.168Z,7.05
2023-01-29T16:36:49.785Z,6.93
2023-01-29T16:39:32.548Z,7.38
2023-01-29T16:42:12.239Z,7.82
2023-01-29T16:44:47.299Z,7.30
2023-01-29T16:47:20.575Z,6.50
2023-01-29T16:49:53.394Z,6.78
2023-01-29T16:52:23.057Z,6.85
2023-01-29T16:54:52.355Z,7.55
2023-01-29T16:57:25.585Z,7.03
2023-01-29T16:59:55.590Z,7.85
2023-01-29T17:02:24.840Z,7.13
2023-01-29T17:04:54.458Z,7.28
2023-01-29T17:07:21.356Z,8.25
2023-01-29T17:09:54.175Z,8.13
2023-01-29T17:12:24.129Z,7.57
2023-01-29T17:14:59.416Z,7.72
2023-01-29T17:17:35.833Z,7.45
2023-01-29T17:20:14.239Z,8.15
2023-01-29T17:22:40.986Z,8.60
2023-01-29T17:25:09.242Z,8.10
2023-01-29T17:27:35.804Z,8.20
2023-01-29T17:30:02.299Z,8.20
2023-01-29T17:32:44.600Z,9.07
2023-01-29T17:35:14.043Z,10.10
2023-01-29T17:37:40.605Z,12.95
2023-01-29T17:40:33.382Z,15.02
2023-01-29T17:42:59.981Z,12.55
2023-01-29T17:45:26.547Z,11.73
2023-01-29T17:47:53.063Z,12.27
2023-01-29T17:50:28.973Z,10.43
2023-01-29T17:52:55.536Z,13.20
2023-01-29T17:55:22.212Z,12.07
2023-01-29T17:57:48.771Z,13.68
2023-01-29T18:00:20.398Z,14.85
2023-01-29T18:02:47.278Z,14.45
2023-01-29T18:05:15.442Z,13.77
2023-01-29T18:07:44.452Z,13.02
2023-01-29T18:10:17.390Z,13.02
2023-01-29T18:12:44.021Z,14.00
2023-01-29T18:15:11.852Z,14.88
2023-01-29T18:17:38.940Z,13.85
2023-01-29T18:20:25.898Z,13.38
2023-01-29T18:22:52.935Z,14.32
2023-01-29T18:25:20.483Z,14.27
2023-01-29T18:27:47.551Z,15.45
2023-01-29T18:30:14.555Z,16.58
2023-01-29T18:32:41.171Z,17.60
2023-01-29T18:35:08.346Z,16.27
2023-01-29T18:37:35.266Z,17.20
2023-01-29T18:40:02.003Z,19.02
2023-01-29T18:42:31.751Z,16.70
2023-01-29T18:44:58.273Z,16.92
2023-01-29T18:47:25.682Z,17.23
2023-01-29T18:49:52.289Z,17.38
2023-01-29T18:52:18.909Z,17.40
2023-01-29T18:54:45.500Z,16.75
2023-01-29T18:57:14.755Z,15.75
2023-01-29T18:59:58.452Z,15.07
2023-01-29T19:02:25.242Z,14.18
2023-01-29T19:04:51.852Z,15.00
2023-01-29T19:07:18.404Z,14.98
2023-01-29T19:09:46.533Z,15.10
2023-01-29T19:12:13.073Z,16.17
2023-01-29T19:14:39.733Z,15.52
2023-01-29T19:17:06.346Z,15.73
2023-01-29T19:19:32.981Z,15.90
2023-01-29T19:21:59.672Z,15.05
2023-01-29T19:24:26.191Z,16.83
2023-01-29T19:26:52.818Z,15.05
2023-01-29T19:29:20.169Z,16.48
2023-01-29T19:31:47.540Z,14.93
2023-01-29T19:34:14.327Z,15.68
2023-01-29T19:36:41.008Z,16.25
2023-01-29T19:39:07.589Z,18.15
2023-01-29T19:41:34.960Z,17.95
2023-01-29T19:44:01.455Z,17.88
2023-01-29T19:46:30.207Z,18.05
2023-01-29T19:48:58.623Z,17.48
2023-01-29T19:51:27.585Z,16.13
2023-01-29T19:53:55.382Z,17.55
2023-01-29T19:56:21.850Z,16.98
2023-01-29T19:58:48.387Z,16.63
2023-01-29T20:01:21.310Z,19.38
2023-01-29T20:03:49.659Z,17.40
2023-01-29T20:06:18.637Z,18.08
2023-01-29T20:08:46.492Z,18.42
2023-01-29T20:11:14.076Z,18.23
2023-01-29T20:13:40.770Z,17.42
2023-01-29T20:16:08.091Z,16.85
2023-01-29T20:18:35.069Z,16.38
2023-01-29T20:21:11.333Z,19.02
2023-01-29T20:23:39.800Z,17.80
2023-01-29T20:26:08.987Z,17.33
2023-01-29T20:28:36.121Z,17.65
2023-01-29T20:31:03.282Z,18.77
2023-01-29T20:33:30.193Z,18.25
2023-01-29T20:35:58.624Z,16.88
2023-01-29T20:38:32.951Z,15.45
2023-01-29T20:41:15.960Z,14.27
2023-01-29T20:43:43.857Z,13.00
2023-01-29T20:46:10.899Z,14.32
2023-01-29T20:48:38.157Z,13.45
2023-01-29T20:51:07.948Z,13.90
2023-01-29T20:53:34.644Z,13.07
2023-01-29T20:56:03.940Z,20.55
2023-01-29T20:58:30.885Z,20.00
2023-01-29T21:00:58.033Z,18.67
2023-01-29T21:03:24.630Z,13.60
2023-01-29T21:05:51.755Z,15.25
2023-01-29T21:08:18.274Z,33.75
2023-01-29T21:10:47.553Z,22.77
2023-01-29T21:13:13.999Z,21.80
2023-01-29T21:15:42.413Z,18.30
2023-01-29T21:18:08.848Z,16.50
2023-01-29T21:20:35.508Z,15.80
2023-01-29T21:23:04.217Z,12.90
2023-01-29T21:25:32.538Z,13.40
2023-01-29T21:27:59.171Z,13.70
2023-01-29T21:30:26.985Z,12.00
2023-01-29T21:32:53.472Z,12.60
2023-01-29T21:35:20.166Z,13.18
2023-01-29T21:37:46.662Z,12.35
2023-01-29T21:40:13.495Z,12.63
2023-01-29T21:42:58.404Z,12.05
2023-01-29T21:45:24.954Z,11.68
2023-01-29T21:47:51.523Z,11.77
2023-01-29T21:50:18.465Z,12.18
2023-01-29T21:52:45.126Z,11.63
2023-01-29T21:55:11.661Z,11.85
2023-01-29T21:57:38.233Z,12.20
2023-01-29T22:00:05.387Z,12.38
2023-01-29T22:02:32.254Z,11.45
2023-01-29T22:05:16.512Z,11.75
2023-01-29T22:07:45.038Z,11.32
2023-01-29T22:10:12.393Z,10.73
2023-01-29T22:12:39.840Z,10.27
2023-01-29T22:15:07.771Z,11.73
2023-01-29T22:17:35.295Z,12.07
2023-01-29T22:20:02.367Z,13.32
2023-01-29T22:22:28.881Z,10.77
2023-01-29T22:24:56.452Z,11.35
2023-01-29T22:27:22.941Z,11.18
2023-01-29T22:29:49.394Z,11.73
2023-01-29T22:32:16.444Z,13.30
2023-01-29T22:34:42.957Z,12.63
2023-01-29T22:37:09.431Z,12.77
2023-01-29T22:39:35.890Z,12.77
2023-01-29T22:42:02.575Z,12.07
2023-01-29T22:44:29.090Z,13.38
2023-01-29T22:46:55.540Z,13.82
2023-01-29T22:49:23.128Z,12.00
2023-01-29T22:52:09.616Z,12.05
2023-01-29T22:54:41.703Z,10.93
2023-01-29T22:57:12.972Z,11.25
2023-01-29T22:59:39.866Z,11.23
2023-01-29T23:02:07.737Z,10.73
2023-01-29T23:04:34.527Z,10.88
2023-01-29T23:07:01.037Z,11.68
2023-01-29T23:09:27.540Z,11.88
2023-01-29T23:11:54.129Z,12.10
2023-01-29T23:14:20.641Z,13.90
2023-01-29T23:16:47.147Z,13.63
2023-01-29T23:19:13.655Z,13.45
2023-01-29T23:21:40.168Z,15.65
2023-01-29T23:24:08.044Z,12.63
2023-01-29T23:26:53.217Z,11.18
2023-01-29T23:29:20.449Z,10.95
2023-01-29T23:31:47.010Z,11.07
2023-01-29T23:34:14.015Z,11.05
2023-01-29T23:36:40.862Z,12.70
2023-01-29T23:39:07.415Z,10.73
2023-01-29T23:41:33.995Z,11.10
2023-01-29T23:44:00.490Z,9.48
2023-01-29T23:46:27.222Z,11.20
2023-01-29T23:48:53.789Z,11.18
2023-01-29T23:51:20.323Z,10.00
2023-01-29T23:53:46.760Z,11.38
2023-01-29T23:56:13.202Z,10.30
2023-01-29T23:58:39.732Z,10.63
